createdAt,value
2023-01-05T00:02:08.297Z,100.00
2023-01-05T00:07:11.564Z,100.00
2023-01-05T00:12:33.748Z,100.00
2023-01-05T00:17:55.697Z,100.00
2023-01-05T00:22:58.974Z,100.00
2023-01-05T00:28:02.210Z,100.00
2023-01-05T00:33:11.549Z,100.00
2023-01-05T00:38:14.792Z,100.00
2023-01-05T00:43:18.009Z,100.00
2023-01-05T00:48:21.143Z,100.00
2023-01-05T00:53:24.239Z,100.00
2023-01-05T00:58:27.450Z,100.00
2023-01-05T01:03:30.707Z,100.00
2023-01-05T01:08:33.902Z,100.00
2023-01-05T01:13:39.114Z,100.00
2023-01-05T01:18:43.236Z,100.00
2023-01-05T01:23:46.401Z,100.00
2023-01-05T01:28:49.844Z,100.00
2023-01-05T01:33:54.054Z,100.00
2023-01-05T01:38:57.310Z,100.00
2023-01-05T01:44:00.666Z,100.00
2023-01-05T01:49:10.732Z,100.00
2023-01-05T01:54:18.230Z,100.00
2023-01-05T01:59:23.467Z,100.00
2023-01-05T02:04:29.995Z,100.00
2023-01-05T02:09:33.557Z,100.00
2023-01-05T02:14:58.896Z,100.00
2023-01-05T02:20:05.950Z,100.00
2023-01-05T02:25:48.131Z,100.00
2023-01-05T02:31:08.585Z,100.00
2023-01-05T02:36:29.845Z,100.00
2023-01-05T02:41:53.972Z,100.00
2023-01-05T02:47:19.471Z,100.00
2023-01-05T02:52:24.057Z,100.00
2023-01-05T02:57:47.429Z,100.00
2023-01-05T03:03:01.755Z,100.00
2023-01-05T03:08:07.734Z,100.00
2023-01-05T03:13:33.869Z,100.00
2023-01-05T03:18:57.401Z,100.00
2023-01-05T03:24:20.332Z,100.00
2023-01-05T03:29:47.390Z,100.00
2023-01-05T03:35:14.311Z,100.00
2023-01-05T03:40:24.705Z,100.00
2023-01-05T03:45:36.772Z,100.00
2023-01-05T03:50:40.174Z,100.00
2023-01-05T03:55:46.856Z,100.00
2023-01-05T04:00:50.394Z,100.00
2023-01-05T04:05:54.765Z,100.00
2023-01-05T04:11:18.056Z,100.00
2023-01-05T04:16:28.951Z,100.00
2023-01-05T04:21:34.163Z,100.00
2023-01-05T04:26:42.267Z,100.00
2023-01-05T04:31:46.125Z,100.00
2023-01-05T04:36:49.764Z,100.00
2023-01-05T04:41:54.466Z,100.00
2023-01-05T04:46:58.421Z,100.00
2023-01-05T04:52:01.960Z,100.00
2023-01-05T04:57:06.348Z,100.00
2023-01-05T05:02:11.382Z,100.00
2023-01-05T05:07:16.070Z,100.00
2023-01-05T05:12:20.866Z,100.00
2023-01-05T05:17:26.382Z,100.00
2023-01-05T05:22:30.156Z,100.00
2023-01-05T05:27:35.563Z,100.00
2023-01-05T05:32:43.921Z,100.00
2023-01-05T05:37:51.512Z,100.00
2023-01-05T05:42:59.571Z,100.00
2023-01-05T05:48:02.678Z,100.00
2023-01-05T05:53:05.995Z,100.00
2023-01-05T05:58:09.687Z,100.00
2023-01-05T06:03:14.187Z,100.00
2023-01-05T06:08:17.601Z,100.00
2023-01-05T06:13:20.864Z,100.00
2023-01-05T06:18:24.021Z,100.00
2023-01-05T06:23:27.306Z,100.00
2023-01-05T06:28:30.475Z,100.00
2023-01-05T06:33:33.623Z,100.00
2023-01-05T06:38:37.343Z,100.00
2023-01-05T06:43:40.487Z,100.00
2023-01-05T06:48:43.589Z,100.00
2023-01-05T06:53:46.743Z,100.00
2023-01-05T06:58:49.841Z,100.00
2023-01-05T07:03:53.016Z,100.00
2023-01-05T07:08:56.254Z,100.00
2023-01-05T07:13:59.414Z,100.00
2023-01-05T07:19:02.694Z,100.00
2023-01-05T07:24:06.131Z,100.00
2023-01-05T07:29:09.225Z,100.00
2023-01-05T07:34:12.692Z,100.00
2023-01-05T07:39:16.549Z,100.00
2023-01-05T07:44:19.812Z,100.00
2023-01-05T07:49:22.915Z,100.00
2023-01-05T07:54:27.593Z,100.00
2023-01-05T07:59:30.765Z,100.00
2023-01-05T08:04:33.986Z,100.00
2023-01-05T08:09:58.953Z,100.00
2023-01-05T08:15:02.256Z,100.00
2023-01-05T08:20:05.961Z,100.00
2023-01-05T08:25:13.106Z,100.00
2023-01-05T08:30:16.279Z,100.00
2023-01-05T08:35:19.367Z,100.00
2023-01-05T08:40:22.442Z,100.00
2023-01-05T08:45:25.606Z,100.00
2023-01-05T08:50:29.185Z,100.00
2023-01-05T08:55:32.366Z,100.00
2023-01-05T09:00:36.108Z,100.00
2023-01-05T09:05:42.087Z,100.00
2023-01-05T09:10:45.232Z,100.00
2023-01-05T09:15:48.412Z,100.00
2023-01-05T09:20:56.471Z,100.00
2023-01-05T09:25:59.992Z,100.00
2023-01-05T09:31:20.721Z,100.00
2023-01-05T09:36:24.682Z,100.00
2023-01-05T09:41:27.847Z,100.00
2023-01-05T09:46:35.408Z,100.00
2023-01-05T09:51:38.676Z,100.00
2023-01-05T10:02:21.688Z,100.00
2023-01-05T10:07:27.690Z,100.00
2023-01-05T10:13:07.362Z,100.00
2023-01-05T10:18:15.532Z,100.00
2023-01-05T10:23:30.917Z,100.00
2023-01-05T10:28:41.936Z,100.00
2023-01-05T10:33:53.883Z,100.00
2023-01-05T10:39:42.927Z,100.00
2023-01-05T10:45:03.460Z,100.00
2023-01-05T10:50:32.080Z,99.99
2023-01-05T10:56:06.118Z,99.57
2023-01-05T11:01:27.022Z,100.00
2023-01-05T11:06:34.510Z,100.00
2023-01-05T11:11:37.768Z,100.00
2023-01-05T11:16:51.417Z,100.00
2023-01-05T11:22:01.421Z,100.00
2023-01-05T11:27:24.908Z,100.00
2023-01-05T11:32:28.171Z,99.93
2023-01-05T11:37:31.680Z,99.19
2023-01-05T11:42:41.961Z,97.80
2023-01-05T11:47:52.366Z,97.71
2023-01-05T11:52:58.182Z,96.22
2023-01-05T11:58:25.856Z,96.35
2023-01-05T12:03:41.421Z,95.10
2023-01-05T12:09:42.389Z,95.10
2023-01-05T12:14:54.360Z,94.94
2023-01-05T12:20:39.612Z,95.13
2023-01-05T12:25:59.224Z,96.42
2023-01-05T12:36:59.714Z,95.58
2023-01-05T12:42:25.627Z,94.78
2023-01-05T12:48:02.818Z,93.37
2023-01-05T12:53:10.444Z,93.50
2023-01-05T12:58:21.072Z,92.80
2023-01-05T13:03:36.263Z,90.57
2023-01-05T13:09:03.629Z,88.14
2023-01-05T13:14:27.728Z,88.37
2023-01-05T13:19:42.287Z,88.47
2023-01-05T13:24:53.143Z,88.74
2023-01-05T13:30:00.153Z,88.30
2023-01-05T13:35:58.253Z,89.69
2023-01-05T13:41:13.668Z,89.68
2023-01-05T13:46:22.567Z,90.16
2023-01-05T13:51:47.138Z,90.59
2023-01-05T13:56:51.023Z,90.60
2023-01-05T14:01:56.714Z,91.42
2023-01-05T14:07:05.519Z,91.20
2023-01-05T14:12:09.202Z,91.53
2023-01-05T14:17:12.388Z,91.78
2023-01-05T14:22:36.581Z,91.82
2023-01-05T14:28:35.077Z,92.02
2023-01-05T14:34:03.613Z,92.13
2023-01-05T14:39:18.497Z,92.45
2023-01-05T14:44:28.249Z,92.73
2023-01-05T14:49:38.922Z,93.15
2023-01-05T14:54:42.166Z,93.40
2023-01-05T14:59:47.040Z,93.71
2023-01-05T15:04:55.192Z,94.08
2023-01-05T15:10:27.810Z,94.41
2023-01-05T15:15:46.238Z,94.55
2023-01-05T15:21:10.982Z,94.60
2023-01-05T15:26:41.334Z,94.53
2023-01-05T15:31:53.935Z,94.82
2023-01-05T15:37:09.116Z,94.64
2023-01-05T15:42:17.821Z,95.47
2023-01-05T15:47:24.347Z,96.55
2023-01-05T15:52:35.593Z,98.19
2023-01-05T15:57:39.145Z,99.26
2023-01-05T16:02:42.353Z,100.00
2023-01-05T16:08:00.007Z,100.00
2023-01-05T16:13:11.130Z,100.00
2023-01-05T16:18:18.531Z,100.00
2023-01-05T16:23:37.493Z,100.00
2023-01-05T16:28:41.015Z,100.00
2023-01-05T16:33:46.049Z,100.00
2023-01-05T16:38:49.936Z,100.00
2023-01-05T16:44:01.217Z,100.00
2023-01-05T16:49:46.386Z,98.60
2023-01-05T16:55:35.997Z,98.03
2023-01-05T17:00:39.494Z,98.00
2023-01-05T17:05:42.726Z,98.35
2023-01-05T17:10:46.928Z,98.60
2023-01-05T17:15:52.877Z,98.15
2023-01-05T17:20:58.554Z,98.52
2023-01-05T17:26:11.816Z,98.84
2023-01-05T17:31:15.649Z,99.47
2023-01-05T17:36:27.245Z,99.57
2023-01-05T17:41:30.470Z,99.72
2023-01-05T17:46:37.033Z,99.54
2023-01-05T17:51:40.298Z,100.00
2023-01-05T17:56:43.440Z,100.00
2023-01-05T18:06:54.697Z,99.80
2023-01-05T18:11:57.828Z,99.71
2023-01-05T18:17:01.008Z,98.96
2023-01-05T18:22:04.823Z,98.85
2023-01-05T18:27:09.662Z,98.73
2023-01-05T18:32:13.157Z,98.83
2023-01-05T18:37:23.595Z,99.22
2023-01-05T18:42:26.929Z,99.27
2023-01-05T18:47:30.183Z,99.30
2023-01-05T18:52:34.631Z,99.38
2023-01-05T18:57:37.784Z,99.65
2023-01-05T19:02:40.992Z,100.00
2023-01-05T19:07:44.342Z,100.00
2023-01-05T19:12:47.793Z,100.00
2023-01-05T19:17:53.498Z,100.00
2023-01-05T19:22:56.583Z,100.00
2023-01-05T19:28:01.462Z,100.00
2023-01-05T19:33:05.575Z,100.00
2023-01-05T19:38:11.168Z,100.00
2023-01-05T19:43:14.307Z,100.00
2023-01-05T19:48:17.433Z,99.87
2023-01-05T19:53:36.488Z,98.08
2023-01-05T19:58:41.031Z,95.43
2023-01-05T20:03:45.117Z,95.24
2023-01-05T20:08:52.807Z,94.64
2023-01-05T20:13:55.894Z,94.25
2023-01-05T20:19:00.185Z,94.08
2023-01-05T20:24:06.743Z,93.39
2023-01-05T20:29:10.276Z,93.47
2023-01-05T20:34:18.722Z,93.46
2023-01-05T20:39:22.962Z,93.52
2023-01-05T20:44:27.059Z,94.01
2023-01-05T20:49:30.740Z,93.34
2023-01-05T20:54:34.411Z,92.89
2023-01-05T20:59:38.979Z,93.06
2023-01-05T21:10:10.063Z,93.00
2023-01-05T21:15:13.226Z,92.53
2023-01-05T21:20:16.435Z,91.70
2023-01-05T21:25:19.690Z,91.35
2023-01-05T21:30:22.927Z,90.61
2023-01-05T21:35:26.075Z,90.97
2023-01-05T21:40:30.234Z,91.04
2023-01-05T21:45:34.732Z,90.81
2023-01-05T21:50:58.061Z,91.89
2023-01-05T21:56:23.525Z,92.30
2023-01-05T22:01:28.918Z,91.70
2023-01-05T22:06:32.594Z,91.57
2023-01-05T22:11:35.747Z,90.93
2023-01-05T22:16:38.938Z,90.37
2023-01-05T22:21:42.735Z,90.07
2023-01-05T22:26:45.882Z,90.55
2023-01-05T22:31:51.045Z,90.11
2023-01-05T22:36:54.364Z,89.67
2023-01-05T22:41:57.501Z,90.15
2023-01-05T22:47:00.646Z,90.34
2023-01-05T22:52:04.018Z,90.21
2023-01-05T22:57:07.162Z,90.05
2023-01-05T23:02:10.460Z,89.71
2023-01-05T23:07:13.702Z,90.07
2023-01-05T23:12:16.796Z,90.68
2023-01-05T23:17:20.016Z,90.99
2023-01-05T23:22:23.165Z,91.42
2023-01-05T23:27:26.299Z,90.90
2023-01-05T23:32:29.469Z,90.40
2023-01-05T23:37:32.728Z,90.22
2023-01-05T23:42:46.449Z,90.74
2023-01-05T23:47:49.964Z,89.99
2023-01-05T23:52:53.110Z,89.04
2023-01-05T23:57:58.401Z,89.02
